sensor_id;sensor_type;location;lat;lon;timestamp;temperature;humidity
40638;DHT22;26336;44.696;10.622;2023-04-12T00:02:35;14.30;97.40
40638;DHT22;26336;44.696;10.622;2023-04-12T00:05:39;14.20;97.80
40638;DHT22;26336;44.696;10.622;2023-04-12T00:08:49;14.20;97.90
40638;DHT22;26336;44.696;10.622;2023-04-12T00:11:52;14.20;97.90
40638;DHT22;26336;44.696;10.622;2023-04-12T00:14:56;14.30;97.90
40638;DHT22;26336;44.696;10.622;2023-04-12T00:18:00;14.30;98.00
40638;DHT22;26336;44.696;10.622;2023-04-12T00:21:04;14.20;98.30
40638;DHT22;26336;44.696;10.622;2023-04-12T00:24:07;14.10;98.70
40638;DHT22;26336;44.696;10.622;2023-04-12T00:27:11;13.90;99.30
40638;DHT22;26336;44.696;10.622;2023-04-12T00:30:16;13.90;99.40
40638;DHT22;26336;44.696;10.622;2023-04-12T00:33:19;14.00;99.30
40638;DHT22;26336;44.696;10.622;2023-04-12T00:36:23;13.70;99.50
40638;DHT22;26336;44.696;10.622;2023-04-12T00:39:27;13.40;99.90
40638;DHT22;26336;44.696;10.622;2023-04-12T00:42:34;13.10;99.90
40638;DHT22;26336;44.696;10.622;2023-04-12T00:45:38;12.80;99.90
40638;DHT22;26336;44.696;10.622;2023-04-12T00:48:42;12.70;99.90
40638;DHT22;26336;44.696;10.622;2023-04-12T00:51:47;12.70;99.90
40638;DHT22;26336;44.696;10.622;2023-04-12T00:54:51;12.60;99.90
40638;DHT22;26336;44.696;10.622;2023-04-12T00:57:56;12.60;99.90
40638;DHT22;26336;44.696;10.622;2023-04-12T01:01:00;12.60;99.90
40638;DHT22;26336;44.696;10.622;2023-04-12T01:04:04;12.50;99.90
40638;DHT22;26336;44.696;10.622;2023-04-12T01:22:50;12.30;99.90
40638;DHT22;26336;44.696;10.622;2023-04-12T01:29:08;12.20;99.90
40638;DHT22;26336;44.696;10.622;2023-04-12T01:32:13;12.20;99.90
40638;DHT22;26336;44.696;10.622;2023-04-12T01:35:18;12.50;99.90
40638;DHT22;26336;44.696;10.622;2023-04-12T01:38:23;12.60;99.90
40638;DHT22;26336;44.696;10.622;2023-04-12T01:41:27;12.80;99.90
40638;DHT22;26336;44.696;10.622;2023-04-12T01:44:31;12.90;99.90
40638;DHT22;26336;44.696;10.622;2023-04-12T01:47:35;12.70;99.90
40638;DHT22;26336;44.696;10.622;2023-04-12T01:54:03;12.80;99.90
40638;DHT22;26336;44.696;10.622;2023-04-12T01:57:13;12.70;99.90
40638;DHT22;26336;44.696;10.622;2023-04-12T02:00:17;12.60;99.90
40638;DHT22;26336;44.696;10.622;2023-04-12T02:03:22;12.50;99.90
40638;DHT22;26336;44.696;10.622;2023-04-12T02:06:26;12.50;99.90
40638;DHT22;26336;44.696;10.622;2023-04-12T02:09:30;12.40;99.90
40638;DHT22;26336;44.696;10.622;2023-04-12T02:12:38;12.30;99.90
40638;DHT22;26336;44.696;10.622;2023-04-12T02:15:42;12.40;99.90
40638;DHT22;26336;44.696;10.622;2023-04-12T02:18:46;12.20;99.90
40638;DHT22;26336;44.696;10.622;2023-04-12T02:21:51;12.20;99.90
40638;DHT22;26336;44.696;10.622;2023-04-12T02:24:55;12.20;99.90
40638;DHT22;26336;44.696;10.622;2023-04-12T02:28:00;12.00;99.90
40638;DHT22;26336;44.696;10.622;2023-04-12T02:31:05;12.00;99.90
40638;DHT22;26336;44.696;10.622;2023-04-12T02:34:09;12.00;99.90
40638;DHT22;26336;44.696;10.622;2023-04-12T02:37:19;11.80;99.90
40638;DHT22;26336;44.696;10.622;2023-04-12T02:40:26;11.80;99.90
40638;DHT22;26336;44.696;10.622;2023-04-12T02:43:32;11.90;99.90
40638;DHT22;26336;44.696;10.622;2023-04-12T02:46:39;11.80;99.90
40638;DHT22;26336;44.696;10.622;2023-04-12T02:49:43;11.80;99.90
40638;DHT22;26336;44.696;10.622;2023-04-12T02:52:48;11.80;99.90
40638;DHT22;26336;44.696;10.622;2023-04-12T02:55:52;11.70;99.90
40638;DHT22;26336;44.696;10.622;2023-04-12T02:59:00;11.70;99.90
40638;DHT22;26336;44.696;10.622;2023-04-12T03:02:19;11.70;99.90
40638;DHT22;26336;44.696;10.622;2023-04-12T03:05:23;11.60;99.90
40638;DHT22;26336;44.696;10.622;2023-04-12T03:08:28;11.60;99.90
40638;DHT22;26336;44.696;10.622;2023-04-12T03:11:33;11.50;99.90
40638;DHT22;26336;44.696;10.622;2023-04-12T03:14:38;11.60;99.90
40638;DHT22;26336;44.696;10.622;2023-04-12T03:17:44;11.50;99.90
40638;DHT22;26336;44.696;10.622;2023-04-12T03:20:49;11.50;99.90
40638;DHT22;26336;44.696;10.622;2023-04-12T03:23:55;11.50;99.90
40638;DHT22;26336;44.696;10.622;2023-04-12T03:27:00;11.60;99.90
40638;DHT22;26336;44.696;10.622;2023-04-12T03:30:05;11.60;99.90
40638;DHT22;26336;44.696;10.622;2023-04-12T03:33:12;11.60;99.90
40638;DHT22;26336;44.696;10.622;2023-04-12T03:36:16;11.50;99.90
40638;DHT22;26336;44.696;10.622;2023-04-12T03:39:21;11.50;99.90
40638;DHT22;26336;44.696;10.622;2023-04-12T03:42:28;11.50;99.90
40638;DHT22;26336;44.696;10.622;2023-04-12T03:45:32;11.50;99.90
40638;DHT22;26336;44.696;10.622;2023-04-12T03:48:38;11.60;99.90
40638;DHT22;26336;44.696;10.622;2023-04-12T03:51:42;11.80;99.90
40638;DHT22;26336;44.696;10.622;2023-04-12T03:54:47;11.80;99.90
40638;DHT22;26336;44.696;10.622;2023-04-12T03:57:57;11.70;99.90
40638;DHT22;26336;44.696;10.622;2023-04-12T04:01:07;11.80;99.90
40638;DHT22;26336;44.696;10.622;2023-04-12T04:04:13;11.90;99.90
40638;DHT22;26336;44.696;10.622;2023-04-12T04:07:16;12.00;99.90
40638;DHT22;26336;44.696;10.622;2023-04-12T04:10:22;12.00;99.90
40638;DHT22;26336;44.696;10.622;2023-04-12T04:13:27;12.00;99.90
40638;DHT22;26336;44.696;10.622;2023-04-12T04:16:35;12.10;99.90
40638;DHT22;26336;44.696;10.622;2023-04-12T04:19:41;12.10;99.90
40638;DHT22;26336;44.696;10.622;2023-04-12T04:22:45;11.90;99.90
40638;DHT22;26336;44.696;10.622;2023-04-12T04:25:53;11.70;99.90
40638;DHT22;26336;44.696;10.622;2023-04-12T04:28:58;11.60;99.90
40638;DHT22;26336;44.696;10.622;2023-04-12T04:32:12;11.40;99.90
40638;DHT22;26336;44.696;10.622;2023-04-12T04:35:16;11.30;99.90
40638;DHT22;26336;44.696;10.622;2023-04-12T04:38:37;11.30;99.90
40638;DHT22;26336;44.696;10.622;2023-04-12T04:41:56;11.20;99.90
40638;DHT22;26336;44.696;10.622;2023-04-12T04:45:09;11.10;99.90
40638;DHT22;26336;44.696;10.622;2023-04-12T04:48:19;11.10;99.90
40638;DHT22;26336;44.696;10.622;2023-04-12T04:51:23;11.00;99.90
40638;DHT22;26336;44.696;10.622;2023-04-12T04:54:28;11.00;99.90
40638;DHT22;26336;44.696;10.622;2023-04-12T04:57:32;11.00;99.90
40638;DHT22;26336;44.696;10.622;2023-04-12T05:00:36;11.00;99.90
40638;DHT22;26336;44.696;10.622;2023-04-12T05:03:42;11.00;99.90
40638;DHT22;26336;44.696;10.622;2023-04-12T05:06:48;10.90;99.90
40638;DHT22;26336;44.696;10.622;2023-04-12T05:09:55;11.10;99.90
40638;DHT22;26336;44.696;10.622;2023-04-12T05:13:01;11.20;99.90
40638;DHT22;26336;44.696;10.622;2023-04-12T05:16:06;11.20;99.90
40638;DHT22;26336;44.696;10.622;2023-04-12T05:19:10;11.20;99.90
40638;DHT22;26336;44.696;10.622;2023-04-12T05:22:14;11.20;99.90
40638;DHT22;26336;44.696;10.622;2023-04-12T05:25:23;11.10;99.90
40638;DHT22;26336;44.696;10.622;2023-04-12T05:28:34;11.10;99.90
40638;DHT22;26336;44.696;10.622;2023-04-12T05:31:38;11.20;99.90
40638;DHT22;26336;44.696;10.622;2023-04-12T05:34:46;11.30;99.90
40638;DHT22;26336;44.696;10.622;2023-04-12T05:37:50;11.40;99.90
40638;DHT22;26336;44.696;10.622;2023-04-12T05:40:54;11.30;99.90
40638;DHT22;26336;44.696;10.622;2023-04-12T05:44:00;11.30;99.90
40638;DHT22;26336;44.696;10.622;2023-04-12T05:47:06;11.30;99.90
40638;DHT22;26336;44.696;10.622;2023-04-12T05:50:10;11.50;99.90
40638;DHT22;26336;44.696;10.622;2023-04-12T05:53:14;11.50;99.90
40638;DHT22;26336;44.696;10.622;2023-04-12T05:56:18;11.60;99.90
40638;DHT22;26336;44.696;10.622;2023-04-12T05:59:22;11.70;99.90
40638;DHT22;26336;44.696;10.622;2023-04-12T06:02:26;11.80;99.90
40638;DHT22;26336;44.696;10.622;2023-04-12T06:05:30;11.80;99.90
40638;DHT22;26336;44.696;10.622;2023-04-12T06:08:36;11.80;99.90
40638;DHT22;26336;44.696;10.622;2023-04-12T06:11:40;11.90;99.90
40638;DHT22;26336;44.696;10.622;2023-04-12T06:14:44;11.90;99.90
40638;DHT22;26336;44.696;10.622;2023-04-12T06:17:49;11.90;99.90
40638;DHT22;26336;44.696;10.622;2023-04-12T06:20:56;11.90;99.90
40638;DHT22;26336;44.696;10.622;2023-04-12T06:24:00;11.90;99.90
40638;DHT22;26336;44.696;10.622;2023-04-12T06:27:04;11.90;99.90
40638;DHT22;26336;44.696;10.622;2023-04-12T06:30:09;11.90;99.90
40638;DHT22;26336;44.696;10.622;2023-04-12T06:33:13;11.80;99.90
40638;DHT22;26336;44.696;10.622;2023-04-12T06:36:18;11.80;99.90
40638;DHT22;26336;44.696;10.622;2023-04-12T06:39:25;11.80;99.90
40638;DHT22;26336;44.696;10.622;2023-04-12T06:42:29;11.90;99.90
40638;DHT22;26336;44.696;10.622;2023-04-12T06:45:33;11.80;99.90
40638;DHT22;26336;44.696;10.622;2023-04-12T06:48:37;11.70;99.90
40638;DHT22;26336;44.696;10.622;2023-04-12T06:51:41;11.80;99.90
40638;DHT22;26336;44.696;10.622;2023-04-12T06:54:45;11.80;99.90
40638;DHT22;26336;44.696;10.622;2023-04-12T06:57:49;11.80;99.90
40638;DHT22;26336;44.696;10.622;2023-04-12T07:01:02;11.80;99.90
40638;DHT22;26336;44.696;10.622;2023-04-12T07:04:06;11.90;99.90
40638;DHT22;26336;44.696;10.622;2023-04-12T07:07:10;11.80;99.90
40638;DHT22;26336;44.696;10.622;2023-04-12T07:10:14;11.80;99.90
40638;DHT22;26336;44.696;10.622;2023-04-12T07:13:18;11.90;99.90
40638;DHT22;26336;44.696;10.622;2023-04-12T07:16:25;11.90;99.90
40638;DHT22;26336;44.696;10.622;2023-04-12T07:19:28;11.80;99.90
40638;DHT22;26336;44.696;10.622;2023-04-12T07:22:33;11.90;99.90
40638;DHT22;26336;44.696;10.622;2023-04-12T07:25:36;12.00;99.90
40638;DHT22;26336;44.696;10.622;2023-04-12T07:28:41;12.10;99.90
40638;DHT22;26336;44.696;10.622;2023-04-12T07:31:48;12.20;99.90
40638;DHT22;26336;44.696;10.622;2023-04-12T07:34:52;12.10;99.90
40638;DHT22;26336;44.696;10.622;2023-04-12T07:37:56;12.30;99.90
40638;DHT22;26336;44.696;10.622;2023-04-12T07:41:00;12.30;99.90
40638;DHT22;26336;44.696;10.622;2023-04-12T07:44:04;12.40;99.90
40638;DHT22;26336;44.696;10.622;2023-04-12T07:47:08;12.20;99.90
40638;DHT22;26336;44.696;10.622;2023-04-12T07:50:12;12.10;99.90
40638;DHT22;26336;44.696;10.622;2023-04-12T07:53:20;12.10;99.90
40638;DHT22;26336;44.696;10.622;2023-04-12T07:56:24;12.00;99.90
40638;DHT22;26336;44.696;10.622;2023-04-12T07:59:29;12.00;99.90
40638;DHT22;26336;44.696;10.622;2023-04-12T08:02:33;12.10;99.90
40638;DHT22;26336;44.696;10.622;2023-04-12T08:05:37;12.10;99.90
40638;DHT22;26336;44.696;10.622;2023-04-12T08:08:41;12.10;99.90
40638;DHT22;26336;44.696;10.622;2023-04-12T08:11:45;12.20;99.90
40638;DHT22;26336;44.696;10.622;2023-04-12T08:14:49;12.30;99.90
40638;DHT22;26336;44.696;10.622;2023-04-12T08:17:53;12.30;99.90
40638;DHT22;26336;44.696;10.622;2023-04-12T08:20:57;12.40;99.90
40638;DHT22;26336;44.696;10.622;2023-04-12T08:24:01;12.50;99.90
40638;DHT22;26336;44.696;10.622;2023-04-12T08:27:04;12.40;99.90
40638;DHT22;26336;44.696;10.622;2023-04-12T08:30:09;12.30;99.90
40638;DHT22;26336;44.696;10.622;2023-04-12T08:33:13;12.30;99.90
40638;DHT22;26336;44.696;10.622;2023-04-12T08:36:17;12.40;99.90
40638;DHT22;26336;44.696;10.622;2023-04-12T08:39:21;12.50;99.90
40638;DHT22;26336;44.696;10.622;2023-04-12T08:42:25;12.60;99.90
40638;DHT22;26336;44.696;10.622;2023-04-12T08:45:30;12.70;99.90
40638;DHT22;26336;44.696;10.622;2023-04-12T08:48:34;12.70;99.90
40638;DHT22;26336;44.696;10.622;2023-04-12T08:51:38;12.70;99.90
40638;DHT22;26336;44.696;10.622;2023-04-12T08:54:43;12.70;99.90
40638;DHT22;26336;44.696;10.622;2023-04-12T08:57:47;12.80;99.90
40638;DHT22;26336;44.696;10.622;2023-04-12T09:00:51;12.70;99.90
40638;DHT22;26336;44.696;10.622;2023-04-12T09:03:54;12.60;99.90
40638;DHT22;26336;44.696;10.622;2023-04-12T09:06:58;12.60;99.90
40638;DHT22;26336;44.696;10.622;2023-04-12T09:10:02;12.80;99.90
40638;DHT22;26336;44.696;10.622;2023-04-12T09:13:07;12.80;99.90
40638;DHT22;26336;44.696;10.622;2023-04-12T09:16:11;12.80;99.90
40638;DHT22;26336;44.696;10.622;2023-04-12T09:19:15;12.80;99.90
40638;DHT22;26336;44.696;10.622;2023-04-12T09:22:31;12.90;99.90
40638;DHT22;26336;44.696;10.622;2023-04-12T09:25:44;12.90;99.90
40638;DHT22;26336;44.696;10.622;2023-04-12T09:28:50;13.00;99.90
40638;DHT22;26336;44.696;10.622;2023-04-12T09:31:55;13.10;99.90
40638;DHT22;26336;44.696;10.622;2023-04-12T09:34:59;13.10;99.90
40638;DHT22;26336;44.696;10.622;2023-04-12T09:38:08;13.20;99.90
40638;DHT22;26336;44.696;10.622;2023-04-12T09:41:18;13.20;99.90
40638;DHT22;26336;44.696;10.622;2023-04-12T09:44:26;13.40;99.90
40638;DHT22;26336;44.696;10.622;2023-04-12T09:47:37;13.60;99.90
40638;DHT22;26336;44.696;10.622;2023-04-12T09:50:44;13.70;99.90
40638;DHT22;26336;44.696;10.622;2023-04-12T09:53:48;13.80;99.90
40638;DHT22;26336;44.696;10.622;2023-04-12T09:56:53;14.00;99.90
40638;DHT22;26336;44.696;10.622;2023-04-12T09:59:57;14.10;99.90
40638;DHT22;26336;44.696;10.622;2023-04-12T10:03:03;14.30;99.90
40638;DHT22;26336;44.696;10.622;2023-04-12T10:06:10;14.40;99.90
40638;DHT22;26336;44.696;10.622;2023-04-12T10:09:15;14.40;99.90
40638;DHT22;26336;44.696;10.622;2023-04-12T10:12:19;14.50;99.90
40638;DHT22;26336;44.696;10.622;2023-04-12T10:15:24;14.50;99.90
40638;DHT22;26336;44.696;10.622;2023-04-12T10:18:40;14.50;99.90
40638;DHT22;26336;44.696;10.622;2023-04-12T10:21:45;14.50;99.90
40638;DHT22;26336;44.696;10.622;2023-04-12T10:24:49;14.50;99.90
40638;DHT22;26336;44.696;10.622;2023-04-12T10:27:53;14.50;99.90
40638;DHT22;26336;44.696;10.622;2023-04-12T10:30:58;14.60;99.90
40638;DHT22;26336;44.696;10.622;2023-04-12T10:34:01;14.80;99.90
40638;DHT22;26336;44.696;10.622;2023-04-12T10:37:05;14.90;99.90
40638;DHT22;26336;44.696;10.622;2023-04-12T10:40:16;15.10;99.90
40638;DHT22;26336;44.696;10.622;2023-04-12T10:59:51;15.30;99.90
40638;DHT22;26336;44.696;10.622;2023-04-12T11:03:03;15.40;99.90
40638;DHT22;26336;44.696;10.622;2023-04-12T11:06:08;15.50;99.90
40638;DHT22;26336;44.696;10.622;2023-04-12T11:12:36;15.60;99.90
40638;DHT22;26336;44.696;10.622;2023-04-12T11:15:41;15.60;99.90
40638;DHT22;26336;44.696;10.622;2023-04-12T11:18:50;15.60;99.90
40638;DHT22;26336;44.696;10.622;2023-04-12T11:21:56;15.60;99.90
40638;DHT22;26336;44.696;10.622;2023-04-12T11:25:00;15.60;99.90
40638;DHT22;26336;44.696;10.622;2023-04-12T11:28:04;15.70;99.90
40638;DHT22;26336;44.696;10.622;2023-04-12T11:31:09;15.70;99.90
40638;DHT22;26336;44.696;10.622;2023-04-12T11:34:15;15.80;99.90
40638;DHT22;26336;44.696;10.622;2023-04-12T11:37:19;15.80;99.90
40638;DHT22;26336;44.696;10.622;2023-04-12T11:40:24;15.90;99.90
40638;DHT22;26336;44.696;10.622;2023-04-12T11:43:28;15.90;99.90
40638;DHT22;26336;44.696;10.622;2023-04-12T11:46:32;15.90;99.90
40638;DHT22;26336;44.696;10.622;2023-04-12T11:49:41;15.90;99.90
40638;DHT22;26336;44.696;10.622;2023-04-12T11:52:45;15.90;99.90
40638;DHT22;26336;44.696;10.622;2023-04-12T11:55:49;15.90;99.90
40638;DHT22;26336;44.696;10.622;2023-04-12T11:58:53;15.80;99.90
40638;DHT22;26336;44.696;10.622;2023-04-12T12:01:58;15.80;99.90
40638;DHT22;26336;44.696;10.622;2023-04-12T12:05:07;15.80;99.90
40638;DHT22;26336;44.696;10.622;2023-04-12T12:08:12;15.80;99.90
40638;DHT22;26336;44.696;10.622;2023-04-12T12:11:17;15.80;99.90
40638;DHT22;26336;44.696;10.622;2023-04-12T12:14:24;15.80;99.90
40638;DHT22;26336;44.696;10.622;2023-04-12T12:17:34;15.90;99.90
40638;DHT22;26336;44.696;10.622;2023-04-12T12:20:48;15.90;99.90
40638;DHT22;26336;44.696;10.622;2023-04-12T12:23:56;16.00;99.90
40638;DHT22;26336;44.696;10.622;2023-04-12T12:27:01;16.00;99.90
40638;DHT22;26336;44.696;10.622;2023-04-12T12:30:09;16.00;99.90
40638;DHT22;26336;44.696;10.622;2023-04-12T12:33:36;16.00;99.90
40638;DHT22;26336;44.696;10.622;2023-04-12T12:36:45;16.00;99.90
40638;DHT22;26336;44.696;10.622;2023-04-12T12:40:01;16.10;99.90
40638;DHT22;26336;44.696;10.622;2023-04-12T12:43:15;16.10;99.90
40638;DHT22;26336;44.696;10.622;2023-04-12T12:46:19;16.10;99.90
40638;DHT22;26336;44.696;10.622;2023-04-12T12:49:27;16.10;99.90
40638;DHT22;26336;44.696;10.622;2023-04-12T12:52:30;16.10;99.90
40638;DHT22;26336;44.696;10.622;2023-04-12T12:55:38;16.10;99.90
40638;DHT22;26336;44.696;10.622;2023-04-12T12:58:48;16.10;99.90
40638;DHT22;26336;44.696;10.622;2023-04-12T13:01:53;16.10;99.90
40638;DHT22;26336;44.696;10.622;2023-04-12T13:04:57;16.10;99.90
40638;DHT22;26336;44.696;10.622;2023-04-12T13:08:02;16.10;99.90
40638;DHT22;26336;44.696;10.622;2023-04-12T13:11:06;16.20;99.90
40638;DHT22;26336;44.696;10.622;2023-04-12T13:14:11;16.20;99.90
40638;DHT22;26336;44.696;10.622;2023-04-12T13:17:15;16.30;99.90
40638;DHT22;26336;44.696;10.622;2023-04-12T13:20:21;16.40;99.90
40638;DHT22;26336;44.696;10.622;2023-04-12T13:23:25;16.30;99.90
40638;DHT22;26336;44.696;10.622;2023-04-12T13:26:29;16.40;99.90
40638;DHT22;26336;44.696;10.622;2023-04-12T13:29:33;16.40;99.90
40638;DHT22;26336;44.696;10.622;2023-04-12T13:32:38;16.30;99.90
40638;DHT22;26336;44.696;10.622;2023-04-12T13:35:42;16.20;99.90
40638;DHT22;26336;44.696;10.622;2023-04-12T13:38:58;16.20;99.90
40638;DHT22;26336;44.696;10.622;2023-04-12T13:42:02;16.20;99.90
40638;DHT22;26336;44.696;10.622;2023-04-12T13:45:16;16.20;99.90
40638;DHT22;26336;44.696;10.622;2023-04-12T13:48:20;16.30;99.90
40638;DHT22;26336;44.696;10.622;2023-04-12T13:51:28;16.30;99.90
40638;DHT22;26336;44.696;10.622;2023-04-12T13:58:10;16.40;99.90
40638;DHT22;26336;44.696;10.622;2023-04-12T14:01:14;16.40;99.90
40638;DHT22;26336;44.696;10.622;2023-04-12T14:04:21;16.40;99.90
40638;DHT22;26336;44.696;10.622;2023-04-12T14:07:24;16.40;99.90
40638;DHT22;26336;44.696;10.622;2023-04-12T14:10:33;16.40;99.90
40638;DHT22;26336;44.696;10.622;2023-04-12T14:13:37;16.40;99.90
40638;DHT22;26336;44.696;10.622;2023-04-12T14:16:40;16.40;99.90
40638;DHT22;26336;44.696;10.622;2023-04-12T14:19:44;16.40;99.90
40638;DHT22;26336;44.696;10.622;2023-04-12T14:22:58;16.40;99.90
40638;DHT22;26336;44.696;10.622;2023-04-12T14:30:31;16.50;99.90
40638;DHT22;26336;44.696;10.622;2023-04-12T14:34:25;16.50;99.90
40638;DHT22;26336;44.696;10.622;2023-04-12T14:46:32;16.50;99.90
40638;DHT22;26336;44.696;10.622;2023-04-12T14:49:45;16.50;99.90
40638;DHT22;26336;44.696;10.622;2023-04-12T15:00:26;16.70;99.90
40638;DHT22;26336;44.696;10.622;2023-04-12T15:03:51;16.80;99.90
40638;DHT22;26336;44.696;10.622;2023-04-12T15:07:40;16.70;99.90
40638;DHT22;26336;44.696;10.622;2023-04-12T15:10:50;16.70;99.90
40638;DHT22;26336;44.696;10.622;2023-04-12T15:14:08;16.80;99.90
40638;DHT22;26336;44.696;10.622;2023-04-12T15:17:36;16.90;99.90
40638;DHT22;26336;44.696;10.622;2023-04-12T15:20:46;16.90;99.90
40638;DHT22;26336;44.696;10.622;2023-04-12T15:37:06;17.00;99.90
40638;DHT22;26336;44.696;10.622;2023-04-12T15:40:17;17.00;99.90
40638;DHT22;26336;44.696;10.622;2023-04-12T15:43:26;16.90;99.90
40638;DHT22;26336;44.696;10.622;2023-04-12T15:46:31;16.90;99.90
40638;DHT22;26336;44.696;10.622;2023-04-12T15:49:41;16.90;99.90
40638;DHT22;26336;44.696;10.622;2023-04-12T15:52:46;16.90;99.90
40638;DHT22;26336;44.696;10.622;2023-04-12T15:56:00;16.90;99.90
40638;DHT22;26336;44.696;10.622;2023-04-12T15:59:40;16.90;99.90
40638;DHT22;26336;44.696;10.622;2023-04-12T16:02:57;16.90;99.90
40638;DHT22;26336;44.696;10.622;2023-04-12T16:06:09;16.80;99.90
40638;DHT22;26336;44.696;10.622;2023-04-12T16:09:23;16.80;99.90
40638;DHT22;26336;44.696;10.622;2023-04-12T16:12:54;16.80;99.90
40638;DHT22;26336;44.696;10.622;2023-04-12T16:16:22;16.70;99.90
40638;DHT22;26336;44.696;10.622;2023-04-12T16:19:36;16.70;99.90
40638;DHT22;26336;44.696;10.622;2023-04-12T16:22:51;16.70;99.90
40638;DHT22;26336;44.696;10.622;2023-04-12T16:26:05;16.60;99.90
40638;DHT22;26336;44.696;10.622;2023-04-12T16:29:18;16.60;99.90
40638;DHT22;26336;44.696;10.622;2023-04-12T16:32:31;16.60;99.90
40638;DHT22;26336;44.696;10.622;2023-04-12T16:35:51;16.70;99.90
40638;DHT22;26336;44.696;10.622;2023-04-12T16:38:59;16.70;99.90
40638;DHT22;26336;44.696;10.622;2023-04-12T16:42:09;16.60;99.90
40638;DHT22;26336;44.696;10.622;2023-04-12T16:45:13;16.60;99.90
40638;DHT22;26336;44.696;10.622;2023-04-12T16:48:17;16.60;99.90
40638;DHT22;26336;44.696;10.622;2023-04-12T16:51:21;16.60;99.90
40638;DHT22;26336;44.696;10.622;2023-04-12T16:54:25;16.60;99.90
40638;DHT22;26336;44.696;10.622;2023-04-12T16:57:30;16.60;99.90
40638;DHT22;26336;44.696;10.622;2023-04-12T17:00:35;16.60;99.90
40638;DHT22;26336;44.696;10.622;2023-04-12T17:03:42;16.60;99.90
40638;DHT22;26336;44.696;10.622;2023-04-12T17:06:46;16.60;99.90
40638;DHT22;26336;44.696;10.622;2023-04-12T17:09:51;16.50;99.90
40638;DHT22;26336;44.696;10.622;2023-04-12T17:12:55;16.50;99.90
40638;DHT22;26336;44.696;10.622;2023-04-12T17:16:00;16.50;99.90
40638;DHT22;26336;44.696;10.622;2023-04-12T17:19:04;16.40;99.90
40638;DHT22;26336;44.696;10.622;2023-04-12T17:22:08;16.40;99.90
40638;DHT22;26336;44.696;10.622;2023-04-12T17:28:42;16.30;99.90
40638;DHT22;26336;44.696;10.622;2023-04-12T17:31:46;16.30;99.90
40638;DHT22;26336;44.696;10.622;2023-04-12T17:35:02;16.30;99.90
40638;DHT22;26336;44.696;10.622;2023-04-12T17:38:09;16.20;99.90
40638;DHT22;26336;44.696;10.622;2023-04-12T17:41:13;16.20;99.90
40638;DHT22;26336;44.696;10.622;2023-04-12T17:44:17;16.20;99.90
40638;DHT22;26336;44.696;10.622;2023-04-12T17:50:17;16.10;99.90
40638;DHT22;26336;44.696;10.622;2023-04-12T17:53:21;16.10;99.90
40638;DHT22;26336;44.696;10.622;2023-04-12T17:56:27;16.00;99.90
40638;DHT22;26336;44.696;10.622;2023-04-12T17:59:31;15.90;99.90
40638;DHT22;26336;44.696;10.622;2023-04-12T18:02:41;15.90;99.90
40638;DHT22;26336;44.696;10.622;2023-04-12T18:05:46;15.80;99.90
40638;DHT22;26336;44.696;10.622;2023-04-12T18:08:52;15.80;99.90
40638;DHT22;26336;44.696;10.622;2023-04-12T18:11:56;15.90;99.90
40638;DHT22;26336;44.696;10.622;2023-04-12T18:15:01;15.90;99.90
40638;DHT22;26336;44.696;10.622;2023-04-12T18:18:06;15.90;99.90
40638;DHT22;26336;44.696;10.622;2023-04-12T18:21:10;15.80;99.90
40638;DHT22;26336;44.696;10.622;2023-04-12T18:24:14;15.80;99.90
40638;DHT22;26336;44.696;10.622;2023-04-12T18:27:21;15.70;99.90
40638;DHT22;26336;44.696;10.622;2023-04-12T18:30:25;15.60;99.90
40638;DHT22;26336;44.696;10.622;2023-04-12T18:33:29;15.50;99.90
40638;DHT22;26336;44.696;10.622;2023-04-12T18:36:38;15.50;99.90
40638;DHT22;26336;44.696;10.622;2023-04-12T18:39:42;15.40;99.90
40638;DHT22;26336;44.696;10.622;2023-04-12T18:42:46;15.40;99.90
40638;DHT22;26336;44.696;10.622;2023-04-12T18:45:50;15.40;99.90
40638;DHT22;26336;44.696;10.622;2023-04-12T18:48:55;15.30;99.90
40638;DHT22;26336;44.696;10.622;2023-04-12T18:51:59;15.30;99.90
40638;DHT22;26336;44.696;10.622;2023-04-12T18:55:04;15.30;99.90
40638;DHT22;26336;44.696;10.622;2023-04-12T18:58:08;15.30;99.90
40638;DHT22;26336;44.696;10.622;2023-04-12T19:01:12;15.40;99.90
40638;DHT22;26336;44.696;10.622;2023-04-12T19:04:20;15.50;99.90
40638;DHT22;26336;44.696;10.622;2023-04-12T19:07:24;15.60;99.90
40638;DHT22;26336;44.696;10.622;2023-04-12T19:10:29;15.60;99.90
40638;DHT22;26336;44.696;10.622;2023-04-12T19:13:34;15.70;99.90
40638;DHT22;26336;44.696;10.622;2023-04-12T19:16:40;15.60;99.90
40638;DHT22;26336;44.696;10.622;2023-04-12T19:19:45;15.50;99.90
40638;DHT22;26336;44.696;10.622;2023-04-12T19:22:49;15.40;99.90
40638;DHT22;26336;44.696;10.622;2023-04-12T19:25:55;15.30;99.90
40638;DHT22;26336;44.696;10.622;2023-04-12T19:29:04;15.30;99.90
40638;DHT22;26336;44.696;10.622;2023-04-12T19:32:08;15.40;99.90
40638;DHT22;26336;44.696;10.622;2023-04-12T19:35:15;15.40;99.90
40638;DHT22;26336;44.696;10.622;2023-04-12T19:38:19;15.40;99.90
40638;DHT22;26336;44.696;10.622;2023-04-12T19:41:24;15.50;99.90
40638;DHT22;26336;44.696;10.622;2023-04-12T19:44:28;15.40;99.90
40638;DHT22;26336;44.696;10.622;2023-04-12T19:47:34;15.40;99.90
40638;DHT22;26336;44.696;10.622;2023-04-12T19:50:38;15.40;99.90
40638;DHT22;26336;44.696;10.622;2023-04-12T19:53:43;15.40;99.90
40638;DHT22;26336;44.696;10.622;2023-04-12T19:56:57;15.30;99.90
40638;DHT22;26336;44.696;10.622;2023-04-12T20:00:07;15.20;99.90
40638;DHT22;26336;44.696;10.622;2023-04-12T20:03:15;15.10;99.90
40638;DHT22;26336;44.696;10.622;2023-04-12T20:06:20;14.90;99.90
40638;DHT22;26336;44.696;10.622;2023-04-12T20:09:25;14.90;99.90
40638;DHT22;26336;44.696;10.622;2023-04-12T20:12:30;14.80;99.90
40638;DHT22;26336;44.696;10.622;2023-04-12T20:15:38;14.70;99.90
40638;DHT22;26336;44.696;10.622;2023-04-12T20:18:43;14.70;99.90
40638;DHT22;26336;44.696;10.622;2023-04-12T20:21:47;14.80;99.90
40638;DHT22;26336;44.696;10.622;2023-04-12T20:24:53;14.80;99.90
40638;DHT22;26336;44.696;10.622;2023-04-12T20:28:02;14.70;99.90
40638;DHT22;26336;44.696;10.622;2023-04-12T20:31:06;14.60;99.90
40638;DHT22;26336;44.696;10.622;2023-04-12T20:34:10;14.60;99.90
40638;DHT22;26336;44.696;10.622;2023-04-12T20:37:18;14.60;99.90
40638;DHT22;26336;44.696;10.622;2023-04-12T20:40:41;14.50;99.90
40638;DHT22;26336;44.696;10.622;2023-04-12T20:43:46;14.40;99.90
40638;DHT22;26336;44.696;10.622;2023-04-12T20:46:53;14.30;99.90